Time;durP1;ratioP1;P1;durP2;ratioP2;P2;SDS_P1;SDS_P2;PMS_P1;PMS_P2;Temp;Humidity;BMP_temperature;BMP_pressure;BME280_temperature;BME280_humidity;BME280_pressure;Samples;Min_cycle;Max_cycle;Signal;HPM_P1;HPM_P2
2021/07/04 00:00:47;;;;;;;0.40;0.20;;;;;;;22.00;85.20;99822.50;5053390;28;20482;-52
2021/07/04 00:03:15;;;;;;;0.50;0.40;;;;;;;21.68;88.58;99823.31;5059263;28;20450;-52
2021/07/04 00:05:48;;;;;;;0.40;0.20;;;;;;;21.47;90.33;99825.91;5072952;28;20881;-51
2021/07/04 00:08:22;;;;;;;0.50;0.40;;;;;;;21.40;91.20;99819.31;5062852;28;20970;-52
2021/07/04 00:10:55;;;;;;;0.60;0.50;;;;;;;21.44;90.98;99820.78;5072958;28;21339;-52
2021/07/04 00:13:27;;;;;;;3.23;2.97;;;;;;;21.38;92.19;99820.38;5073047;28;20417;-52
2021/07/04 00:16:00;;;;;;;0.60;0.50;;;;;;;21.26;93.13;99816.84;5068868;28;20443;-52
2021/07/04 00:18:32;;;;;;;0.50;0.23;;;;;;;21.31;91.59;99811.06;5064274;28;20541;-52
2021/07/04 00:21:10;;;;;;;0.50;0.30;;;;;;;21.43;91.21;99816.34;5052437;28;20481;-52
2021/07/04 00:23:42;;;;;;;0.50;0.43;;;;;;;21.26;91.33;99812.31;5052598;28;20890;-51
2021/07/04 00:26:10;;;;;;;0.50;0.30;;;;;;;21.35;90.72;99815.22;5052640;28;20502;-52
2021/07/04 00:28:37;;;;;;;0.50;0.33;;;;;;;21.31;91.75;99809.22;5052544;28;20458;-52
2021/07/04 00:31:05;;;;;;;0.50;0.33;;;;;;;21.19;92.44;99818.28;5052509;28;20475;-52
2021/07/04 00:33:35;;;;;;;0.50;0.30;;;;;;;20.81;96.77;99819.47;5052276;28;20447;-52
2021/07/04 00:36:06;;;;;;;0.50;0.20;;;;;;;20.72;98.85;99819.34;5052556;28;20478;-52
2021/07/04 00:38:35;;;;;;;0.50;0.20;;;;;;;20.52;99.74;99824.44;5052434;28;20516;-52
2021/07/04 00:41:03;;;;;;;0.50;0.30;;;;;;;20.53;100.00;99815.38;5052727;28;20471;-51
2021/07/04 00:43:33;;;;;;;0.50;0.20;;;;;;;20.65;99.76;99817.13;5052542;28;20447;-52
2021/07/04 00:46:00;;;;;;;0.50;0.40;;;;;;;20.50;100.00;99817.44;5051026;28;20503;-53
2021/07/04 00:48:27;;;;;;;1.40;1.40;;;;;;;20.56;100.00;99815.16;5052320;28;20866;-51
2021/07/04 00:50:54;;;;;;;0.50;0.30;;;;;;;20.77;100.00;99819.84;5052420;28;20993;-51
2021/07/04 00:53:22;;;;;;;0.50;0.20;;;;;;;20.30;100.00;99809.03;5050696;28;20450;-50
2021/07/04 00:55:49;;;;;;;0.50;0.20;;;;;;;20.19;100.00;99806.28;5052628;28;20443;-50
2021/07/04 00:58:16;;;;;;;0.50;0.20;;;;;;;20.08;100.00;99801.69;5052077;28;20861;-48
2021/07/04 01:00:43;;;;;;;2.40;0.60;;;;;;;20.23;100.00;99798.78;5051865;28;21050;-49
2021/07/04 01:03:10;;;;;;;0.50;0.20;;;;;;;20.27;100.00;99809.22;5052283;28;20450;-49
2021/07/04 01:05:39;;;;;;;0.50;0.20;;;;;;;20.57;100.00;99799.81;5052361;28;20490;-48
2021/07/04 01:08:07;;;;;;;0.50;0.20;;;;;;;20.41;100.00;99800.97;5052996;28;20481;-49
2021/07/04 01:10:35;;;;;;;0.40;0.20;;;;;;;20.51;100.00;99798.41;5051833;28;20988;-49
2021/07/04 01:13:04;;;;;;;0.40;0.30;;;;;;;20.48;100.00;99801.38;5051944;28;20450;-49
2021/07/04 01:15:31;;;;;;;0.40;0.20;;;;;;;20.51;100.00;99800.25;5064900;28;20446;-48
2021/07/04 01:18:00;;;;;;;1.43;1.43;;;;;;;20.59;100.00;99800.53;5059762;28;20878;-48
2021/07/04 01:20:28;;;;;;;0.77;0.77;;;;;;;20.65;100.00;99800.91;5072107;28;20476;-48
2021/07/04 01:23:16;;;;;;;0.50;0.30;;;;;;;20.59;100.00;99798.69;5061359;28;20511;-49
2021/07/04 01:25:47;;;;;;;0.73;0.67;;;;;;;20.49;100.00;99796.81;5072669;28;20508;-48
2021/07/04 01:28:14;;;;;;;1.03;0.87;;;;;;;20.81;100.00;99794.28;5073619;28;21013;-48
2021/07/04 01:30:43;;;;;;;0.40;0.30;;;;;;;20.55;100.00;99791.78;5073285;28;20474;-48
2021/07/04 01:33:10;;;;;;;1.17;1.07;;;;;;;20.42;100.00;99793.72;5072625;28;20935;-49
2021/07/04 01:35:37;;;;;;;0.43;0.20;;;;;;;20.68;100.00;99789.00;5071453;28;20517;-48
2021/07/04 01:38:03;;;;;;;0.50;0.30;;;;;;;20.64;100.00;99790.22;5067523;28;20450;-49
2021/07/04 01:40:31;;;;;;;0.40;0.30;;;;;;;20.52;100.00;99789.34;5071487;28;20477;-49
2021/07/04 01:42:58;;;;;;;0.50;0.37;;;;;;;20.34;100.00;99790.75;5071965;28;20527;-48
2021/07/04 01:45:25;;;;;;;0.50;0.30;;;;;;;19.88;100.00;99791.56;5071293;28;20486;-48
2021/07/04 01:47:54;;;;;;;1.07;0.40;;;;;;;19.57;100.00;99782.16;5071630;28;20959;-48
2021/07/04 01:50:27;;;;;;;0.50;0.40;;;;;;;19.92;100.00;99781.38;5051754;28;20486;-49
2021/07/04 01:52:54;;;;;;;0.40;0.30;;;;;;;20.07;100.00;99782.91;5051611;28;20453;-48
2021/07/04 01:55:21;;;;;;;0.50;0.30;;;;;;;20.11;100.00;99782.56;5051974;28;20457;-51
2021/07/04 01:57:49;;;;;;;0.93;0.93;;;;;;;20.24;100.00;99784.31;5051628;28;20952;-51
2021/07/04 02:00:19;;;;;;;0.40;0.20;;;;;;;20.31;100.00;99783.75;5051378;28;20961;-48
2021/07/04 02:02:49;;;;;;;0.50;0.50;;;;;;;20.47;100.00;99788.00;5051818;28;20442;-49
2021/07/04 02:05:16;;;;;;;0.43;0.30;;;;;;;20.53;100.00;99792.91;5051585;28;20922;-49
2021/07/04 02:07:43;;;;;;;0.40;0.20;;;;;;;20.21;100.00;99789.97;5051011;28;20451;-48
2021/07/04 02:10:15;;;;;;;0.50;0.20;;;;;;;20.15;100.00;99782.31;5051711;28;20450;-48
2021/07/04 02:12:42;;;;;;;2.00;1.90;;;;;;;20.15;100.00;99782.31;5051448;28;21005;-48
2021/07/04 02:15:16;;;;;;;0.43;0.27;;;;;;;20.48;100.00;99787.88;5062675;28;20442;-49
2021/07/04 02:17:43;;;;;;;0.40;0.20;;;;;;;20.53;100.00;99787.50;5057974;28;20496;-50
2021/07/04 02:20:33;;;;;;;0.50;0.40;;;;;;;20.37;100.00;99796.75;5071662;28;20449;-50
2021/07/04 02:23:18;;;;;;;0.40;0.20;;;;;;;20.27;100.00;99793.03;5061330;28;20457;-49
2021/07/04 02:25:47;;;;;;;0.50;0.27;;;;;;;20.13;100.00;99794.09;5072557;28;20505;-50
2021/07/04 02:28:16;;;;;;;0.50;0.20;;;;;;;19.86;100.00;99789.91;5075005;28;20445;-49
2021/07/04 02:30:45;;;;;;;0.50;0.30;;;;;;;20.08;100.00;99782.78;5074839;28;20534;-50
2021/07/04 02:33:13;;;;;;;0.50;0.40;;;;;;;19.72;100.00;99788.25;5073771;28;20446;-51
2021/07/04 02:35:44;;;;;;;0.40;0.30;;;;;;;19.70;100.00;99787.50;5074837;28;20456;-49
2021/07/04 02:38:11;;;;;;;0.50;0.20;;;;;;;20.06;100.00;99778.50;5071034;28;20441;-51
2021/07/04 02:40:38;;;;;;;0.90;0.90;;;;;;;20.17;100.00;99778.53;5074683;28;20501;-49
2021/07/04 02:43:06;;;;;;;7.13;1.23;;;;;;;20.07;100.00;99777.53;5074711;28;20612;-50
2021/07/04 02:45:33;;;;;;;0.43;0.30;;;;;;;20.01;100.00;99780.66;5074770;28;20485;-50
2021/07/04 02:47:59;;;;;;;0.40;0.20;;;;;;;19.99;100.00;99790.72;5075057;28;20931;-49
2021/07/04 02:50:27;;;;;;;0.40;0.20;;;;;;;20.03;100.00;99782.28;5074960;28;20991;-50
2021/07/04 02:52:54;;;;;;;0.40;0.20;;;;;;;20.21;100.00;99784.56;5074458;28;20454;-50
2021/07/04 02:55:22;;;;;;;1.57;1.50;;;;;;;20.07;100.00;99781.06;5073339;28;21005;-50
2021/07/04 02:57:49;;;;;;;1.33;1.23;;;;;;;20.07;100.00;99777.53;5074586;28;20498;-50
2021/07/04 03:00:19;;;;;;;0.40;0.20;;;;;;;20.13;100.00;99777.91;5074714;28;21001;-49
2021/07/04 03:02:47;;;;;;;0.50;0.30;;;;;;;19.93;100.00;99772.31;5074852;28;20446;-49
2021/07/04 03:05:14;;;;;;;0.40;0.20;;;;;;;19.93;100.00;99785.78;5065545;28;21000;-50
2021/07/04 03:07:42;;;;;;;0.40;0.20;;;;;;;19.84;100.00;99790.03;5057860;28;20537;-51
2021/07/04 03:10:14;;;;;;;0.50;0.30;;;;;;;19.76;100.00;99790.63;5074523;28;20503;-50
2021/07/04 03:12:41;;;;;;;0.60;0.50;;;;;;;19.91;100.00;99779.66;5074273;28;20965;-50
2021/07/04 03:15:11;;;;;;;0.40;0.20;;;;;;;19.93;100.00;99777.69;5074246;28;20495;-50
2021/07/04 03:17:38;;;;;;;0.50;0.30;;;;;;;20.05;100.00;99787.56;5060510;28;20497;-50
2021/07/04 03:20:10;;;;;;;0.40;0.20;;;;;;;19.96;100.00;99781.03;5074213;28;20450;-49
2021/07/04 03:22:37;;;;;;;0.40;0.20;;;;;;;19.68;100.00;99787.63;5062713;28;20818;-50
2021/07/04 03:25:06;;;;;;;0.40;0.20;;;;;;;19.70;100.00;99782.97;5073889;28;20454;-50
2021/07/04 03:27:33;;;;;;;0.40;0.20;;;;;;;19.68;100.00;99775.97;5073875;28;21004;-50
2021/07/04 03:30:00;;;;;;;0.50;0.30;;;;;;;19.67;100.00;99783.22;5073797;28;20493;-51
2021/07/04 03:32:27;;;;;;;0.40;0.30;;;;;;;19.65;100.00;99773.50;5073970;28;20454;-49
2021/07/04 03:34:54;;;;;;;0.50;0.30;;;;;;;19.67;100.00;99779.66;5072658;28;20442;-49
2021/07/04 03:37:21;;;;;;;2.30;1.50;;;;;;;19.51;100.00;99774.50;5068026;28;20470;-50
2021/07/04 03:39:47;;;;;;;0.40;0.20;;;;;;;19.80;100.00;99773.22;5073786;28;20446;-50
2021/07/04 03:42:14;;;;;;;2.30;0.60;;;;;;;19.79;100.00;99776.03;5073829;28;20474;-49
2021/07/04 03:44:40;;;;;;;0.80;0.80;;;;;;;20.09;100.00;99775.56;5073089;28;20898;-50
2021/07/04 03:47:07;;;;;;;1.13;1.03;;;;;;;20.06;100.00;99783.91;5060303;28;20522;-50
2021/07/04 03:49:34;;;;;;;0.90;0.60;;;;;;;19.94;100.00;99782.13;5071869;28;21032;-50
2021/07/04 03:52:01;;;;;;;0.50;0.30;;;;;;;19.91;100.00;99785.06;5073626;28;20545;-49
2021/07/04 03:54:27;;;;;;;0.50;0.40;;;;;;;19.94;100.00;99787.50;5073044;28;20450;-49
2021/07/04 03:56:54;;;;;;;0.40;0.30;;;;;;;19.80;100.00;99783.16;5073469;28;20442;-49
2021/07/04 03:59:20;;;;;;;0.40;0.20;;;;;;;19.76;100.00;99784.38;5072904;28;20944;-50
2021/07/04 04:01:47;;;;;;;0.40;0.20;;;;;;;19.89;100.00;99778.91;5073336;28;20508;-50
2021/07/04 04:04:14;;;;;;;0.40;0.23;;;;;;;19.87;100.00;99778.16;5073280;28;20450;-50
2021/07/04 04:06:40;;;;;;;0.43;0.30;;;;;;;19.77;100.00;99778.84;5067815;28;20486;-50
2021/07/04 04:09:07;;;;;;;0.40;0.20;;;;;;;19.74;100.00;99778.22;5067763;28;20447;-49
2021/07/04 04:11:34;;;;;;;0.40;0.20;;;;;;;19.91;100.00;99776.97;5072978;28;20902;-52
2021/07/04 04:14:00;;;;;;;0.40;0.20;;;;;;;19.98;100.00;99778.19;5071541;28;20820;-49
2021/07/04 04:16:27;;;;;;;0.50;0.40;;;;;;;19.92;100.00;99782.25;5064473;28;20446;-49
2021/07/04 04:18:54;;;;;;;0.50;0.30;;;;;;;19.93;100.00;99786.66;5067778;28;20529;-49
2021/07/04 04:21:20;;;;;;;0.40;0.20;;;;;;;20.00;100.00;99785.19;5067322;28;20475;-49
2021/07/04 04:23:47;;;;;;;0.83;0.83;;;;;;;20.09;100.00;99791.75;5067633;28;20500;-50
2021/07/04 04:26:13;;;;;;;0.40;0.20;;;;;;;19.97;100.00;99788.13;5072641;28;20485;-49
2021/07/04 04:28:40;;;;;;;0.40;0.20;;;;;;;19.96;100.00;99783.72;5072478;28;20502;-52
2021/07/04 04:31:07;;;;;;;0.97;0.97;;;;;;;20.06;100.00;99789.28;5072783;28;20508;-49
2021/07/04 04:33:34;;;;;;;5.80;1.27;;;;;;;20.15;100.00;99793.09;5072562;28;20446;-50
2021/07/04 04:36:00;;;;;;;3.13;1.13;;;;;;;20.40;100.00;99787.56;5072530;28;20457;-50
2021/07/04 04:38:27;;;;;;;0.40;0.20;;;;;;;20.21;100.00;99792.66;5067876;28;21020;-49
2021/07/04 04:40:54;;;;;;;0.40;0.30;;;;;;;20.27;100.00;99797.56;5072544;28;20470;-51
2021/07/04 04:43:20;;;;;;;1.23;0.97;;;;;;;20.28;100.00;99788.50;5072386;28;20425;-49
2021/07/04 04:45:47;;;;;;;1.13;1.13;;;;;;;20.34;100.00;99798.84;5072140;28;20991;-50
2021/07/04 04:48:13;;;;;;;0.40;0.20;;;;;;;20.73;100.00;99794.91;5072394;28;20477;-50
2021/07/04 04:50:41;;;;;;;0.43;0.30;;;;;;;20.73;100.00;99792.22;5072305;28;20484;-49
2021/07/04 04:53:08;;;;;;;0.40;0.30;;;;;;;20.75;100.00;99792.09;5072108;28;20479;-50
2021/07/04 04:55:34;;;;;;;0.40;0.20;;;;;;;20.60;100.00;99789.63;5072016;28;20445;-50
2021/07/04 04:58:01;;;;;;;0.40;0.20;;;;;;;20.46;100.00;99788.97;5072178;28;20481;-50
2021/07/04 05:00:28;;;;;;;0.43;0.30;;;;;;;20.46;100.00;99781.72;5072067;28;20994;-49
2021/07/04 05:02:55;;;;;;;1.03;1.03;;;;;;;20.29;100.00;99784.84;5072351;28;20503;-49
2021/07/04 05:05:21;;;;;;;0.60;0.57;;;;;;;20.36;100.00;99786.94;5072406;28;20449;-49
2021/07/04 05:07:48;;;;;;;0.40;0.20;;;;;;;20.38;100.00;99774.19;5060209;28;20523;-49
2021/07/04 05:10:15;;;;;;;0.40;0.20;;;;;;;20.40;100.00;99776.75;5072019;28;20516;-50
2021/07/04 05:12:42;;;;;;;0.50;0.40;;;;;;;20.62;100.00;99776.84;5070677;28;20531;-51
2021/07/04 05:15:10;;;;;;;0.40;0.20;;;;;;;20.52;100.00;99783.06;5072434;28;20469;-51
2021/07/04 05:17:37;;;;;;;0.40;0.20;;;;;;;20.57;100.00;99776.34;5058834;28;20874;-51
2021/07/04 05:20:05;;;;;;;1.77;0.70;;;;;;;20.35;100.00;99776.25;5072252;28;20537;-51
2021/07/04 05:22:33;;;;;;;11.80;1.80;;;;;;;20.54;100.00;99773.88;5061230;28;20456;-49
2021/07/04 05:25:00;;;;;;;0.40;0.20;;;;;;;20.59;100.00;99769.00;5072043;28;20450;-49
2021/07/04 05:27:26;;;;;;;0.40;0.20;;;;;;;20.60;100.00;99765.31;5072414;28;20539;-50
2021/07/04 05:29:53;;;;;;;0.50;0.40;;;;;;;20.61;100.00;99758.94;5072140;28;20449;-49
2021/07/04 05:32:20;;;;;;;0.40;0.20;;;;;;;20.40;100.00;99753.31;5071498;28;20466;-56
2021/07/04 05:34:48;;;;;;;1.00;1.00;;;;;;;20.46;100.00;99760.13;5072383;28;20453;-49
2021/07/04 05:37:17;;;;;;;1.07;0.97;;;;;;;20.59;100.00;99760.03;5067400;28;20446;-50
2021/07/04 05:39:43;;;;;;;0.70;0.70;;;;;;;20.83;100.00;99754.50;5071803;28;20499;-50
2021/07/04 05:42:10;;;;;;;0.50;0.50;;;;;;;20.73;100.00;99746.28;5071986;28;20538;-51
2021/07/04 05:44:37;;;;;;;0.53;0.50;;;;;;;20.66;100.00;99736.94;5071660;28;20445;-51
2021/07/04 05:47:03;;;;;;;0.40;0.30;;;;;;;20.78;100.00;99741.38;5071770;28;20543;-51
2021/07/04 05:49:30;;;;;;;0.80;0.80;;;;;;;21.09;100.00;99738.91;5072064;28;20485;-50
2021/07/04 05:51:57;;;;;;;1.33;0.90;;;;;;;20.93;100.00;99731.19;5072088;28;20474;-51
2021/07/04 05:54:23;;;;;;;0.40;0.20;;;;;;;21.02;100.00;99724.19;5071497;28;20461;-50
2021/07/04 05:56:50;;;;;;;0.40;0.30;;;;;;;21.23;99.79;99733.22;5071547;28;20472;-50
2021/07/04 05:59:17;;;;;;;1.70;0.57;;;;;;;21.16;100.00;99745.53;5071844;28;20446;-51
2021/07/04 06:01:43;;;;;;;0.40;0.30;;;;;;;21.31;99.08;99744.34;5060997;28;20531;-50
2021/07/04 06:04:10;;;;;;;0.40;0.20;;;;;;;21.52;97.96;99744.41;5075871;28;20449;-51
2021/07/04 06:06:36;;;;;;;0.40;0.30;;;;;;;21.55;97.83;99739.63;5055398;28;20537;-50
2021/07/04 06:09:03;;;;;;;1.00;1.00;;;;;;;21.81;96.83;99736.59;5055081;28;20454;-51
2021/07/04 06:11:30;;;;;;;0.50;0.30;;;;;;;21.81;96.49;99733.88;5055733;28;20861;-51
2021/07/04 06:13:57;;;;;;;0.40;0.20;;;;;;;22.18;95.16;99742.44;5056546;28;20453;-51
2021/07/04 06:16:24;;;;;;;6.80;1.00;;;;;;;22.21;94.71;99735.94;5067403;28;20451;-51
2021/07/04 06:18:51;;;;;;;0.50;0.27;;;;;;;22.56;93.37;99747.28;5070078;28;20454;-51
2021/07/04 06:21:18;;;;;;;0.50;0.30;;;;;;;22.47;92.66;99742.66;5069891;28;20843;-50
2021/07/04 06:23:44;;;;;;;0.40;0.30;;;;;;;22.83;91.96;99748.59;5069724;28;20457;-51
2021/07/04 06:26:11;;;;;;;0.50;0.50;;;;;;;22.86;92.42;99743.75;5075255;28;21002;-50
2021/07/04 06:28:41;;;;;;;0.50;0.40;;;;;;;23.27;89.63;99753.63;5075103;28;20452;-51
2021/07/04 06:31:07;;;;;;;0.50;0.30;;;;;;;23.91;85.80;99747.78;5074898;28;20473;-51
2021/07/04 06:33:34;;;;;;;0.40;0.20;;;;;;;23.27;88.42;99742.78;5073339;28;20450;-51
2021/07/04 06:36:01;;;;;;;0.40;0.20;;;;;;;23.21;88.59;99750.63;5075098;28;20818;-50
2021/07/04 06:38:27;;;;;;;0.80;0.80;;;;;;;23.03;90.08;99745.00;5054928;28;20832;-51
2021/07/04 06:40:54;;;;;;;0.43;0.30;;;;;;;23.60;88.59;99747.03;5055137;28;20832;-51
2021/07/04 06:43:21;;;;;;;0.50;0.30;;;;;;;23.59;86.79;99750.75;5054743;28;21130;-52
2021/07/04 06:45:47;;;;;;;0.70;0.70;;;;;;;24.16;84.54;99746.34;5054510;28;20497;-51
2021/07/04 06:48:14;;;;;;;0.50;0.30;;;;;;;23.92;85.04;99743.22;5054684;28;20451;-51
2021/07/04 06:50:41;;;;;;;0.50;0.30;;;;;;;24.32;84.38;99740.38;5055436;28;20467;-51
2021/07/04 06:53:08;;;;;;;0.50;0.40;;;;;;;24.59;83.58;99744.19;5054793;28;20447;-51
2021/07/04 06:55:35;;;;;;;0.60;0.40;;;;;;;24.64;81.94;99744.59;5055215;28;20483;-52
2021/07/04 06:58:02;;;;;;;0.50;0.50;;;;;;;24.45;83.04;99731.91;5054750;28;20451;-51
2021/07/04 07:00:28;;;;;;;0.47;0.37;;;;;;;25.12;81.13;99735.44;5054434;28;20966;-51
2021/07/04 07:02:55;;;;;;;0.47;0.20;;;;;;;25.03;80.70;99729.88;5054533;28;20447;-50
2021/07/04 07:05:22;;;;;;;0.60;0.60;;;;;;;24.47;83.68;99732.63;5054568;28;20504;-51
2021/07/04 07:07:48;;;;;;;0.50;0.47;;;;;;;24.59;83.26;99730.59;5054404;28;20521;-51
2021/07/04 07:10:16;;;;;;;0.50;0.30;;;;;;;24.43;83.93;99725.78;5054346;28;21356;-51
2021/07/04 07:12:43;;;;;;;0.50;0.40;;;;;;;24.74;82.60;99724.53;5052871;28;20451;-51
2021/07/04 07:15:11;;;;;;;1.70;1.33;;;;;;;24.95;83.78;99720.75;5065950;28;20446;-51
2021/07/04 07:17:39;;;;;;;0.40;0.30;;;;;;;25.38;80.42;99717.41;5069496;28;20784;-51
2021/07/04 07:20:07;;;;;;;0.50;0.30;;;;;;;25.61;78.93;99728.69;5065685;28;20445;-51
2021/07/04 07:22:34;;;;;;;0.50;0.30;;;;;;;25.46;79.29;99713.91;5060655;28;20490;-51
2021/07/04 07:25:03;;;;;;;0.43;0.30;;;;;;;24.98;82.25;99713.13;5074082;28;20446;-51
2021/07/04 07:27:30;;;;;;;0.50;0.30;;;;;;;24.78;82.17;99709.63;5073872;28;20501;-51
2021/07/04 07:29:56;;;;;;;0.50;0.47;;;;;;;24.68;82.60;99705.25;5073932;28;20450;-50
2021/07/04 07:32:23;;;;;;;0.60;0.60;;;;;;;24.85;82.96;99709.03;5073800;28;20480;-51
2021/07/04 07:34:50;;;;;;;0.70;0.70;;;;;;;24.45;82.00;99705.59;5074430;28;20449;-50
2021/07/04 07:37:16;;;;;;;1.90;1.37;;;;;;;24.58;82.15;99701.69;5069493;28;20424;-51
2021/07/04 07:39:43;;;;;;;0.47;0.30;;;;;;;24.52;82.19;99709.41;5073764;28;20870;-51
2021/07/04 07:42:10;;;;;;;0.57;0.47;;;;;;;24.62;80.25;99712.13;5067357;28;20492;-51
2021/07/04 07:44:36;;;;;;;0.40;0.30;;;;;;;24.54;82.21;99712.00;5066647;28;20446;-51
2021/07/04 07:47:04;;;;;;;0.50;0.30;;;;;;;24.74;83.44;99707.34;5067707;28;20495;-51
2021/07/04 07:49:31;;;;;;;0.50;0.50;;;;;;;24.91;80.82;99717.44;5066906;28;20432;-51
2021/07/04 07:51:59;;;;;;;0.50;0.40;;;;;;;24.63;82.83;99710.25;5060662;28;20519;-51
2021/07/04 07:54:27;;;;;;;0.63;0.57;;;;;;;24.77;81.85;99712.50;5073439;28;20515;-51
2021/07/04 07:56:54;;;;;;;0.50;0.20;;;;;;;24.61;81.57;99713.13;5073362;28;21001;-51
2021/07/04 07:59:21;;;;;;;0.40;0.20;;;;;;;24.71;81.47;99708.53;5073257;28;20421;-51
2021/07/04 08:01:48;;;;;;;0.57;0.40;;;;;;;24.46;81.20;99714.59;5073261;28;20523;-51
2021/07/04 08:04:15;;;;;;;1.23;1.23;;;;;;;24.38;81.47;99707.16;5073144;28;20943;-51
2021/07/04 08:06:42;;;;;;;0.97;0.97;;;;;;;24.22;81.95;99704.16;5067677;28;20924;-51
2021/07/04 08:09:09;;;;;;;0.83;0.83;;;;;;;24.67;81.47;99698.06;5068517;28;20472;-50
2021/07/04 08:11:35;;;;;;;0.50;0.40;;;;;;;24.73;77.99;99697.50;5072840;28;20492;-50
2021/07/04 08:14:02;;;;;;;13.57;2.10;;;;;;;24.89;78.16;99683.25;5072874;28;20450;-50
2021/07/04 08:16:29;;;;;;;0.40;0.20;;;;;;;25.22;78.20;99698.13;5064989;28;20477;-50
2021/07/04 08:18:56;;;;;;;0.50;0.30;;;;;;;24.90;75.45;99685.81;5068581;28;20424;-52
2021/07/04 08:21:23;;;;;;;0.50;0.30;;;;;;;25.63;74.66;99680.38;5066391;28;20450;-51
2021/07/04 08:23:50;;;;;;;0.40;0.20;;;;;;;25.31;74.78;99673.59;5068206;28;20504;-51
2021/07/04 08:26:17;;;;;;;1.37;1.37;;;;;;;25.53;73.29;99674.19;5073579;28;20919;-51
2021/07/04 08:28:44;;;;;;;1.80;1.70;;;;;;;25.26;72.88;99667.78;5073164;28;20515;-51
2021/07/04 08:31:11;;;;;;;0.50;0.40;;;;;;;24.77;71.76;99652.69;5073474;28;20470;-51
2021/07/04 08:33:38;;;;;;;0.40;0.30;;;;;;;25.15;71.81;99654.38;5072301;28;20452;-51
2021/07/04 08:36:05;;;;;;;1.57;1.43;;;;;;;25.61;72.35;99657.91;5070984;28;20971;-51
2021/07/04 08:38:32;;;;;;;0.40;0.20;;;;;;;26.08;73.35;99653.09;5069465;28;20475;-50
2021/07/04 08:40:59;;;;;;;0.50;0.30;;;;;;;25.90;71.66;99642.19;5071536;28;20807;-51
2021/07/04 08:43:26;;;;;;;0.40;0.30;;;;;;;25.87;72.56;99650.69;5072997;28;20902;-51
2021/07/04 08:45:54;;;;;;;0.40;0.20;;;;;;;25.81;70.67;99654.06;5072422;28;20525;-51
2021/07/04 08:48:20;;;;;;;0.50;0.30;;;;;;;25.68;72.53;99654.44;5073019;28;20464;-51
2021/07/04 08:50:47;;;;;;;0.50;0.30;;;;;;;25.92;72.62;99651.09;5072539;28;20481;-51
2021/07/04 08:53:14;;;;;;;5.33;1.83;;;;;;;25.75;72.46;99651.09;5072300;28;20504;-52
2021/07/04 08:55:45;;;;;;;1.70;0.67;;;;;;;25.83;73.17;99641.13;5072316;28;20489;-52
2021/07/04 08:58:18;;;;;;;0.50;0.30;;;;;;;25.76;71.68;99644.63;5072597;28;20421;-52
2021/07/04 09:01:05;;;;;;;0.47;0.30;;;;;;;25.53;73.17;99653.25;5072483;28;20473;-52
2021/07/04 09:03:31;;;;;;;0.50;0.30;;;;;;;25.49;72.69;99651.84;5073280;28;20833;-52
2021/07/04 09:05:58;;;;;;;0.40;0.30;;;;;;;25.20;75.29;99640.31;5070970;28;20421;-53
2021/07/04 09:08:25;;;;;;;0.50;0.30;;;;;;;25.66;73.96;99633.81;5060789;28;20509;-52
2021/07/04 09:11:14;;;;;;;0.47;0.30;;;;;;;25.45;74.60;99628.66;5070692;28;20448;-52
2021/07/04 09:13:43;;;;;;;0.73;0.73;;;;;;;25.04;76.10;99628.22;5063451;28;20898;-52
2021/07/04 09:16:13;;;;;;;0.50;0.30;;;;;;;24.87;76.24;99623.59;5073071;28;20612;-52
2021/07/04 09:18:40;;;;;;;0.77;0.77;;;;;;;25.41;74.81;99621.84;5072096;28;20453;-52
2021/07/04 09:21:22;;;;;;;0.70;0.70;;;;;;;25.82;74.29;99622.22;5068182;28;21037;-52
2021/07/04 09:23:49;;;;;;;0.50;0.30;;;;;;;25.40;74.24;99623.69;5066975;28;20478;-52
2021/07/04 09:26:42;;;;;;;0.50;0.30;;;;;;;25.80;74.98;99618.81;5072703;28;20420;-52
2021/07/04 09:29:10;;;;;;;0.70;0.70;;;;;;;25.75;75.52;99618.41;5071874;28;20984;-52
2021/07/04 09:31:40;;;;;;;0.43;0.30;;;;;;;25.70;76.10;99618.91;5071786;28;21031;-53
2021/07/04 09:34:12;;;;;;;0.60;0.40;;;;;;;25.74;75.48;99613.97;5058530;28;20482;-52
2021/07/04 09:36:40;;;;;;;0.47;0.37;;;;;;;25.96;73.97;99610.78;5070116;28;20905;-53
2021/07/04 09:39:21;;;;;;;0.50;0.30;;;;;;;25.13;75.96;99609.28;5076340;28;20424;-52
2021/07/04 09:42:04;;;;;;;0.93;0.93;;;;;;;25.81;76.97;99609.63;5062648;28;20474;-53
2021/07/04 09:44:32;;;;;;;1.40;1.07;;;;;;;25.66;74.74;99596.56;5075889;28;20522;-53
2021/07/04 09:47:10;;;;;;;0.50;0.30;;;;;;;25.87;74.45;99593.50;5076400;28;20501;-52
2021/07/04 09:49:38;;;;;;;0.50;0.30;;;;;;;26.03;74.16;99595.47;5062715;28;20432;-53
2021/07/04 09:52:13;;;;;;;0.50;0.30;;;;;;;26.19;73.31;99587.44;5076320;28;20501;-52
2021/07/04 09:54:54;;;;;;;0.50;0.50;;;;;;;26.38;71.03;99588.25;5056690;28;20424;-51
2021/07/04 09:57:21;;;;;;;0.50;0.30;;;;;;;26.40;70.66;99580.75;5074744;28;20408;-52
2021/07/04 09:59:48;;;;;;;0.60;0.40;;;;;;;26.49;69.26;99579.78;5074615;28;21010;-51
2021/07/04 10:02:16;;;;;;;0.40;0.30;;;;;;;26.51;69.01;99578.59;5075717;28;20469;-51
2021/07/04 10:04:43;;;;;;;0.50;0.30;;;;;;;26.62;70.81;99584.78;5074916;28;20450;-52
2021/07/04 10:07:09;;;;;;;0.77;0.70;;;;;;;26.57;69.81;99579.81;5066359;28;20573;-51
2021/07/04 10:09:39;;;;;;;0.50;0.30;;;;;;;26.38;69.17;99588.25;5072558;28;20420;-52
2021/07/04 10:12:07;;;;;;;0.50;0.30;;;;;;;26.04;71.09;99590.88;5076702;28;20440;-50
2021/07/04 10:14:33;;;;;;;0.50;0.20;;;;;;;25.48;73.57;99573.06;5074208;28;20441;-50
2021/07/04 10:17:01;;;;;;;0.50;0.30;;;;;;;25.92;73.94;99569.38;5062648;28;20497;-51
2021/07/04 10:19:32;;;;;;;0.50;0.30;;;;;;;26.07;73.37;99558.75;5074976;28;20476;-53
2021/07/04 10:22:03;;;;;;;2.00;0.60;;;;;;;25.78;75.42;99563.66;5064772;28;20832;-50
2021/07/04 10:24:31;;;;;;;0.40;0.30;;;;;;;25.21;78.30;99565.84;5074386;28;20431;-51
2021/07/04 10:27:02;;;;;;;0.40;0.30;;;;;;;24.20;81.14;99573.94;5072493;28;20457;-51
2021/07/04 10:29:31;;;;;;;0.40;0.30;;;;;;;22.49;83.05;99566.47;5062484;28;20441;-51
2021/07/04 10:32:07;;;;;;;0.50;0.20;;;;;;;22.00;81.57;99559.94;5062176;28;20483;-51
2021/07/04 10:34:45;;;;;;;0.50;0.30;;;;;;;21.54;82.31;99561.22;5075281;28;20464;-51
2021/07/04 10:37:14;;;;;;;0.50;0.20;;;;;;;21.40;84.35;99565.09;5056336;28;20443;-51
2021/07/04 10:39:41;;;;;;;0.50;0.20;;;;;;;21.47;83.39;99573.53;5066699;28;20450;-52
2021/07/04 10:42:09;;;;;;;0.50;0.30;;;;;;;22.11;87.56;99600.50;5075375;28;20497;-51
2021/07/04 10:44:54;;;;;;;0.50;0.30;;;;;;;22.25;98.12;99627.22;5075276;28;20462;-51
2021/07/04 10:47:27;;;;;;;0.50;0.20;;;;;;;21.59;100.00;99649.09;5075482;28;20603;-51
2021/07/04 10:50:12;;;;;;;0.50;0.37;;;;;;;20.80;100.00;99631.34;5074232;28;20424;-51
2021/07/04 10:52:46;;;;;;;0.50;0.20;;;;;;;19.81;100.00;99626.59;5075579;28;20809;-51
2021/07/04 10:55:15;;;;;;;0.50;0.20;;;;;;;20.21;100.00;99615.38;5062830;28;20494;-51
2021/07/04 10:57:51;;;;;;;0.50;0.20;;;;;;;20.25;100.00;99610.59;5073940;28;20446;-51
2021/07/04 11:00:23;;;;;;;0.40;0.20;;;;;;;20.52;100.00;99623.75;5074989;28;20553;-53
2021/07/04 11:02:58;;;;;;;1.17;0.87;;;;;;;19.96;100.00;99638.03;5073460;28;20445;-52
2021/07/04 11:05:31;;;;;;;0.50;0.20;;;;;;;19.85;100.00;99646.09;5074928;28;20845;-60
2021/07/04 11:07:57;;;;;;;0.83;0.83;;;;;;;19.81;100.00;99645.47;5064162;28;20490;-53
2021/07/04 11:10:28;;;;;;;0.50;0.20;;;;;;;19.90;100.00;99637.66;5074564;28;20874;-53
2021/07/04 11:13:07;;;;;;;0.50;0.20;;;;;;;19.43;100.00;99624.09;5061154;28;20825;-52
2021/07/04 11:15:36;;;;;;;1.07;1.07;;;;;;;19.38;100.00;99620.03;5061232;28;20473;-53
2021/07/04 11:18:05;;;;;;;1.37;0.63;;;;;;;19.20;100.00;99616.91;5073155;28;20458;-51
2021/07/04 11:20:38;;;;;;;0.40;0.20;;;;;;;19.41;100.00;99622.50;5059815;28;20848;-50
2021/07/04 11:23:28;;;;;;;0.50;0.20;;;;;;;19.61;100.00;99640.75;5063999;28;20461;-51
2021/07/04 11:25:59;;;;;;;0.40;0.20;;;;;;;19.26;100.00;99639.81;5074349;28;20449;-51
2021/07/04 11:28:55;;;;;;;0.50;0.20;;;;;;;18.68;100.00;99631.53;5073083;28;20504;-53
2021/07/04 11:31:23;;;;;;;2.93;0.63;;;;;;;18.78;100.00;99653.25;5074641;28;20477;-51
2021/07/04 11:33:56;;;;;;;0.50;0.30;;;;;;;19.12;100.00;99692.06;5072798;28;20451;-51
2021/07/04 11:36:28;;;;;;;0.47;0.20;;;;;;;19.17;100.00;99700.63;5070235;28;20462;-52